createdAt,value
2019-02-24T00:00:10.099Z,97340.3
2019-02-24T00:01:12.545Z,97343.9
2019-02-24T00:02:14.969Z,97347
2019-02-24T00:03:17.392Z,97342.4
2019-02-24T00:04:19.838Z,97346.3
2019-02-24T00:05:22.254Z,97342.9
2019-02-24T00:06:24.144Z,97345.4
2019-02-24T00:07:25.776Z,97344.4
2019-02-24T00:08:28.217Z,97345.2
2019-02-24T00:09:30.647Z,97342.7
2019-02-24T00:10:33.081Z,97345.3
2019-02-24T00:11:35.516Z,97343.8
2019-02-24T00:12:37.667Z,97344.4
2019-02-24T00:13:39.816Z,97346.1
2019-02-24T00:14:42.247Z,97352.9
2019-02-24T00:15:44.148Z,97348.3
2019-02-24T00:16:46.585Z,97349.6
2019-02-24T00:17:49.018Z,97349.2
2019-02-24T00:18:51.458Z,97346.1
2019-02-24T00:19:53.918Z,97345.2
2019-02-24T00:20:56.356Z,97346.7
2019-02-24T00:21:58.770Z,97345.8
2019-02-24T00:23:00.370Z,97342.4
2019-02-24T00:24:02.515Z,97351.5
2019-02-24T00:25:04.690Z,97348.5
2019-02-24T00:26:07.115Z,97345
2019-02-24T00:27:09.280Z,97341.4
2019-02-24T00:28:11.727Z,97340.9
2019-02-24T00:29:14.156Z,97338.9
2019-02-24T00:30:16.033Z,97338.5
2019-02-24T00:31:18.467Z,97340.8
2019-02-24T00:32:20.628Z,97340.6
2019-02-24T00:33:23.059Z,97340.1
2019-02-24T00:34:25.476Z,97342.2
2019-02-24T00:35:27.645Z,97344.3
2019-02-24T00:36:30.094Z,97339.4
2019-02-24T00:37:31.955Z,97341.6
2019-02-24T00:38:34.386Z,97339.9
2019-02-24T00:39:36.291Z,97344.9
2019-02-24T00:40:38.444Z,97339.8
2019-02-24T00:41:40.878Z,97339.2
2019-02-24T00:42:43.072Z,97340.7
2019-02-24T00:43:45.515Z,97337.4
2019-02-24T00:44:47.645Z,97338.4
2019-02-24T00:45:50.062Z,97333.6
2019-02-24T00:46:52.491Z,97334.2
2019-02-24T00:47:54.919Z,97337.7
2019-02-24T00:48:57.083Z,97334.9
2019-02-24T00:49:59.254Z,97338.1
2019-02-24T00:51:01.693Z,97334.4
2019-02-24T00:52:04.119Z,97331.6
2019-02-24T00:53:06.558Z,97333.1
2019-02-24T00:54:08.998Z,97331.4
2019-02-24T00:55:10.880Z,97330.4
2019-02-24T00:56:13.311Z,97331.4
2019-02-24T00:57:15.189Z,97329.7
2019-02-24T00:58:18.049Z,97319.2
2019-02-24T00:59:20.480Z,97317
2019-02-24T01:00:22.657Z,97315.5
2019-02-24T01:01:25.116Z,97318.6
2019-02-24T01:02:27.274Z,97318.8
2019-02-24T01:03:29.705Z,97312.7
2019-02-24T01:04:32.121Z,97311.2
2019-02-24T01:05:34.563Z,97311.8
2019-02-24T01:06:36.992Z,97301.8
2019-02-24T01:07:39.141Z,97305
2019-02-24T01:08:41.008Z,97302.6
2019-02-24T01:09:43.155Z,97306.5
2019-02-24T01:10:45.300Z,97305.7
2019-02-24T01:11:47.728Z,97306.9
2019-02-24T01:12:50.158Z,97302.9
2019-02-24T01:13:53.943Z,97300.8
2019-02-24T01:14:56.106Z,97306.9
2019-02-24T01:15:58.279Z,97302.5
2019-02-24T01:17:00.438Z,97299.8
2019-02-24T01:18:02.860Z,97300.3
2019-02-24T01:19:05.288Z,97303.9
2019-02-24T01:20:07.455Z,97300
2019-02-24T01:21:09.879Z,97304.7
2019-02-24T01:22:12.036Z,97307.7
2019-02-24T01:23:14.202Z,97307.7
2019-02-24T01:24:16.647Z,97310.8
2019-02-24T01:25:18.826Z,97307.1
2019-02-24T01:26:20.986Z,97313
2019-02-24T01:27:23.411Z,97316.7
2019-02-24T01:28:27.022Z,97311.6
2019-02-24T01:29:29.178Z,97307.7
2019-02-24T01:30:31.613Z,97303.7
2019-02-24T01:31:34.059Z,97298.1
2019-02-24T01:32:36.203Z,97298
2019-02-24T01:33:38.632Z,97294.3
2019-02-24T01:34:40.793Z,97295
2019-02-24T01:35:43.220Z,97293.3
2019-02-24T01:36:45.380Z,97295.4
2019-02-24T01:37:47.248Z,97291.4
2019-02-24T01:38:49.674Z,97291.4
2019-02-24T01:39:51.819Z,97289.2
2019-02-24T01:40:53.989Z,97293.3
2019-02-24T01:41:55.568Z,97288.5
2019-02-24T01:42:57.994Z,97288.5
2019-02-24T01:44:00.418Z,97292.5
2019-02-24T01:45:02.565Z,97289.2
2019-02-24T01:46:04.730Z,97289.8
2019-02-24T01:47:06.931Z,97288.3
2019-02-24T01:48:09.370Z,97292.7
2019-02-24T01:49:11.519Z,97292.1
2019-02-24T01:50:13.677Z,97291
2019-02-24T01:51:15.840Z,97292.8
2019-02-24T01:52:18.262Z,97292.1
2019-02-24T01:53:20.704Z,97291.6
2019-02-24T01:54:22.852Z,97293.4
2019-02-24T01:55:25.282Z,97294.7
2019-02-24T01:56:27.707Z,97294.3
2019-02-24T01:57:30.168Z,97295.4
2019-02-24T01:59:37.029Z,97291.7
2019-02-24T02:00:39.462Z,97286.8
2019-02-24T02:01:41.329Z,97292.3
2019-02-24T02:02:43.490Z,97290.6
2019-02-24T02:03:45.930Z,97288.9
2019-02-24T02:04:47.813Z,97291.9
2019-02-24T02:05:50.246Z,97289.8
2019-02-24T02:06:52.685Z,97286.6
2019-02-24T02:07:54.861Z,97288.2
2019-02-24T02:08:57.300Z,97288.5
2019-02-24T02:09:59.432Z,97288.8
2019-02-24T02:11:01.591Z,97289.2
2019-02-24T02:12:03.740Z,97284.3
2019-02-24T02:13:05.911Z,97290.2
2019-02-24T02:14:08.338Z,97289
2019-02-24T02:15:10.221Z,97288.9
2019-02-24T02:16:12.384Z,97286.5
2019-02-24T02:17:14.812Z,97284.3
2019-02-24T02:18:16.969Z,97286.3
2019-02-24T02:19:19.395Z,97285.3
2019-02-24T02:20:21.844Z,97283.8
2019-02-24T02:21:23.981Z,97279.5
2019-02-24T02:22:26.147Z,97283.5
2019-02-24T02:23:28.309Z,97282.5
2019-02-24T02:24:30.460Z,97276.8
2019-02-24T02:25:32.878Z,97272.5
2019-02-24T02:26:35.038Z,97274.4
2019-02-24T02:27:37.178Z,97271.8
2019-02-24T02:29:44.053Z,97270.2
2019-02-24T02:30:46.210Z,97264.5
2019-02-24T02:31:48.087Z,97267.4
2019-02-24T02:32:50.509Z,97264.7
2019-02-24T02:33:52.934Z,97259.3
2019-02-24T02:34:55.101Z,97265.1
2019-02-24T02:35:56.986Z,97270.2
2019-02-24T02:36:59.151Z,97270.9
2019-02-24T02:38:01.563Z,97267.5
2019-02-24T02:39:03.710Z,97266.6
2019-02-24T02:40:06.138Z,97266.8
2019-02-24T02:41:08.299Z,97267.4
2019-02-24T02:42:10.718Z,97264.8
2019-02-24T02:43:12.858Z,97263.3
2019-02-24T02:44:15.300Z,97263.9
2019-02-24T02:45:17.735Z,97260
2019-02-24T02:46:20.174Z,97267.3
2019-02-24T02:47:22.596Z,97265.9
2019-02-24T02:48:25.034Z,97263.5
2019-02-24T02:49:27.472Z,97266.3
2019-02-24T02:50:29.892Z,97262.4
2019-02-24T02:51:31.208Z,97263
2019-02-24T02:52:33.373Z,97261.7
2019-02-24T02:53:35.804Z,97262.3
2019-02-24T02:54:37.679Z,97256.9
2019-02-24T02:55:40.114Z,97260.7
2019-02-24T02:56:42.532Z,97257.9
2019-02-24T02:57:44.984Z,97258.5
2019-02-24T02:59:52.118Z,97255.6
2019-02-24T03:00:54.550Z,97258.5
2019-02-24T03:01:56.980Z,97256.1
2019-02-24T03:02:59.524Z,97258.4
2019-02-24T03:04:01.948Z,97260.7
2019-02-24T03:05:04.383Z,97258.7
2019-02-24T03:06:06.816Z,97257.8
2019-02-24T03:07:09.249Z,97261.8
2019-02-24T03:08:11.710Z,97258.2
2019-02-24T03:09:14.130Z,97265.8
2019-02-24T03:10:16.558Z,97267.2
2019-02-24T03:11:18.709Z,97265.7
2019-02-24T03:12:21.144Z,97261.1
2019-02-24T03:13:23.574Z,97267.3
2019-02-24T03:14:25.740Z,97269.7
2019-02-24T03:15:27.353Z,97270.6
2019-02-24T03:16:29.496Z,97275.1
2019-02-24T03:17:31.966Z,97273.9
2019-02-24T03:18:34.421Z,97271.7
2019-02-24T03:19:36.280Z,97272.4
2019-02-24T03:20:38.428Z,97272.6
2019-02-24T03:21:40.862Z,97273.1
2019-02-24T03:22:43.284Z,97272.3
2019-02-24T03:23:45.173Z,97276
2019-02-24T03:24:47.630Z,97272.8
2019-02-24T03:25:50.056Z,97272.5
2019-02-24T03:26:52.476Z,97273.5
2019-02-24T03:27:54.624Z,97269.2
2019-02-24T03:30:02.094Z,97275.4
2019-02-24T03:31:04.520Z,97273.1
2019-02-24T03:32:06.473Z,97268.9
2019-02-24T03:33:08.907Z,97266.2
2019-02-24T03:34:11.350Z,97270.8
2019-02-24T03:35:13.490Z,97263
2019-02-24T03:36:15.918Z,97261.2
2019-02-24T03:37:18.360Z,97259.8
2019-02-24T03:38:20.782Z,97260.2
2019-02-24T03:39:23.205Z,97260.7
2019-02-24T03:40:25.628Z,97264.7
2019-02-24T03:41:27.775Z,97261.9
2019-02-24T03:42:30.203Z,97265.4
2019-02-24T03:43:32.403Z,97264.2
2019-02-24T03:44:34.841Z,97259.6
2019-02-24T03:45:37.259Z,97259.9
2019-02-24T03:46:39.689Z,97264.4
2019-02-24T03:47:41.551Z,97259.7
2019-02-24T03:48:43.712Z,97257.6
2019-02-24T03:49:45.858Z,97256.9
2019-02-24T03:50:48.022Z,97254
2019-02-24T03:51:50.449Z,97254.3
2019-02-24T03:52:52.870Z,97256
2019-02-24T03:53:55.028Z,97259.1
2019-02-24T03:54:57.468Z,97255.3
2019-02-24T03:55:59.770Z,97256
2019-02-24T03:57:02.218Z,97252.6
2019-02-24T03:58:04.646Z,97252.6
2019-02-24T04:00:12.129Z,97257.8
2019-02-24T04:01:14.556Z,97257.6
2019-02-24T04:02:16.986Z,97260.8
2019-02-24T04:03:19.416Z,97261.7
2019-02-24T04:04:21.569Z,97264.1
2019-02-24T04:05:24.007Z,97259.2
2019-02-24T04:06:26.438Z,97264.8
2019-02-24T04:07:28.873Z,97264.1
2019-02-24T04:08:31.299Z,97267.1
2019-02-24T04:09:33.474Z,97269.6
2019-02-24T04:10:35.918Z,97271.5
2019-02-24T04:11:37.807Z,97267.6
2019-02-24T04:12:40.249Z,97265.7
2019-02-24T04:13:42.406Z,97265.2
2019-02-24T04:14:44.628Z,97265.4
2019-02-24T04:15:47.049Z,97261.6
2019-02-24T04:16:49.477Z,97259.8
2019-02-24T04:17:51.618Z,97259.4
2019-02-24T04:18:53.586Z,97258.5
2019-02-24T04:19:56.018Z,97260.2
2019-02-24T04:20:58.450Z,97257.8
2019-02-24T04:22:00.874Z,97258.1
2019-02-24T04:23:03.007Z,97258.3
2019-02-24T04:24:05.150Z,97263.7
2019-02-24T04:25:07.569Z,97262.4
2019-02-24T04:26:09.999Z,97261.5
2019-02-24T04:27:13.279Z,97262.5
2019-02-24T04:28:15.720Z,97262.3
2019-02-24T04:30:22.844Z,97263.4
2019-02-24T04:31:24.988Z,97262.6
2019-02-24T04:32:26.850Z,97261.6
2019-02-24T04:33:29.279Z,97257.4
2019-02-24T04:34:31.446Z,97254.4
2019-02-24T04:35:33.878Z,97257.4
2019-02-24T04:36:36.302Z,97259.2
2019-02-24T04:37:38.461Z,97256.5
2019-02-24T04:38:40.604Z,97257.1
2019-02-24T04:39:42.472Z,97254.1
2019-02-24T04:40:44.660Z,97257.4
2019-02-24T04:41:47.092Z,97255.7
2019-02-24T04:42:49.279Z,97261.1
2019-02-24T04:43:51.426Z,97263.6
2019-02-24T04:44:53.849Z,97264.8
2019-02-24T04:45:55.989Z,97265.4
2019-02-24T04:46:58.158Z,97261.1
2019-02-24T04:48:00.581Z,97267.9
2019-02-24T04:49:02.469Z,97265.5
2019-02-24T04:50:04.620Z,97263
2019-02-24T04:51:07.050Z,97262.4
2019-02-24T04:52:08.930Z,97259.7
2019-02-24T04:53:11.395Z,97260.2
2019-02-24T04:54:13.816Z,97254.1
2019-02-24T04:55:15.966Z,97262.8
2019-02-24T04:56:18.392Z,97260.9
2019-02-24T04:57:20.556Z,97258
2019-02-24T04:58:23.016Z,97261.5
2019-02-24T05:00:30.917Z,97259.1
2019-02-24T05:01:32.795Z,97256.4
2019-02-24T05:02:34.941Z,97252.2
2019-02-24T05:03:37.104Z,97257.3
2019-02-24T05:04:39.273Z,97258.4
2019-02-24T05:05:41.707Z,97256.5
2019-02-24T05:06:44.129Z,97254.8
2019-02-24T05:07:46.560Z,97254.8
2019-02-24T05:08:48.981Z,97258.8
2019-02-24T05:09:51.135Z,97259.1
2019-02-24T05:10:52.741Z,97259.3
2019-02-24T05:11:55.169Z,97262.6
2019-02-24T05:12:57.594Z,97258.7
2019-02-24T05:14:00.028Z,97261.1
2019-02-24T05:15:02.203Z,97258.9
2019-02-24T05:16:04.635Z,97265.2
2019-02-24T05:17:07.119Z,97264.6
2019-02-24T05:18:09.552Z,97267.8
2019-02-24T05:19:11.981Z,97268.1
2019-02-24T05:20:14.398Z,97271.5
2019-02-24T05:21:16.830Z,97269.6
2019-02-24T05:22:19.259Z,97269.6
2019-02-24T05:23:21.408Z,97274.2
2019-02-24T05:24:23.829Z,97275.1
2019-02-24T05:25:26.252Z,97278.6
2019-02-24T05:26:28.692Z,97276.8
2019-02-24T05:27:31.121Z,97277.9
2019-02-24T05:28:33.547Z,97278.2
2019-02-24T05:30:41.139Z,97287
2019-02-24T05:31:43.570Z,97290.3
2019-02-24T05:32:45.708Z,97290
2019-02-24T05:33:48.154Z,97299.2
2019-02-24T05:34:50.613Z,97297
2019-02-24T05:35:52.759Z,97295
2019-02-24T05:36:55.189Z,97291.9
2019-02-24T05:37:57.610Z,97288.2
2019-02-24T05:39:00.037Z,97292.3
2019-02-24T05:40:02.483Z,97291.3
2019-02-24T05:41:04.388Z,97298.3
2019-02-24T05:42:06.829Z,97295.1
2019-02-24T05:43:09.275Z,97294.3
2019-02-24T05:44:10.859Z,97300.4
2019-02-24T05:45:13.301Z,97293.9
2019-02-24T05:46:15.731Z,97294.6
2019-02-24T05:47:18.170Z,97296.2
2019-02-24T05:48:20.308Z,97292.6
2019-02-24T05:49:22.193Z,97293.8
2019-02-24T05:50:24.621Z,97292.6
2019-02-24T05:51:26.779Z,97294.6
2019-02-24T05:52:28.923Z,97292.3
2019-02-24T05:53:31.080Z,97294.3
2019-02-24T05:54:33.517Z,97290.7
2019-02-24T05:55:35.940Z,97296
2019-02-24T05:56:38.093Z,97299.8
2019-02-24T05:57:40.372Z,97298.1
2019-02-24T05:58:43.397Z,97295.8
2019-02-24T06:00:51.296Z,97301
2019-02-24T06:01:53.474Z,97295.5
2019-02-24T06:02:55.898Z,97295.9
2019-02-24T06:03:58.329Z,97297
2019-02-24T06:05:00.232Z,97298.9
2019-02-24T06:06:02.661Z,97298.4
2019-02-24T06:07:04.848Z,97302.8
2019-02-24T06:08:07.301Z,97307.9
2019-02-24T06:09:09.449Z,97309
2019-02-24T06:10:11.883Z,97305.3
2019-02-24T06:11:14.048Z,97306.9
2019-02-24T06:12:15.923Z,97303.9
2019-02-24T06:13:17.782Z,97303.2
2019-02-24T06:14:20.216Z,97302.7
2019-02-24T06:15:22.110Z,97303.2
2019-02-24T06:16:24.269Z,97303
2019-02-24T06:17:26.701Z,97303.5
2019-02-24T06:18:29.117Z,97305.8
2019-02-24T06:19:31.268Z,97306.4
2019-02-24T06:20:33.699Z,97304.2
2019-02-24T06:21:36.123Z,97307.5
2019-02-24T06:22:38.572Z,97306.5
2019-02-24T06:23:40.989Z,97308.7
2019-02-24T06:24:43.147Z,97310.4
2019-02-24T06:25:45.298Z,97310.3
2019-02-24T06:26:47.159Z,97314.2
2019-02-24T06:27:49.336Z,97312.5
2019-02-24T06:28:51.773Z,97315.6
2019-02-24T06:29:54.260Z,97319.7
2019-02-24T06:30:56.457Z,97316.6
2019-02-24T06:31:58.637Z,97317.6
2019-02-24T06:33:01.218Z,97320.6
2019-02-24T06:34:03.660Z,97319.7
2019-02-24T06:35:06.088Z,97317.1
2019-02-24T06:36:08.254Z,97314.9
2019-02-24T06:37:10.692Z,97311.3
2019-02-24T06:38:13.120Z,97312.5
2019-02-24T06:39:15.017Z,97312.3
2019-02-24T06:40:17.145Z,97310.7
2019-02-24T06:41:19.345Z,97314.8
2019-02-24T06:42:21.227Z,97315.9
2019-02-24T06:43:23.673Z,97316.2
2019-02-24T06:44:25.839Z,97322.4
2019-02-24T06:45:28.300Z,97325.3
2019-02-24T06:46:30.442Z,97319.2
2019-02-24T06:47:32.592Z,97319.4
2019-02-24T06:48:34.786Z,97327.5
2019-02-24T06:49:37.213Z,97319.6
2019-02-24T06:50:39.657Z,97321.5
2019-02-24T06:51:42.090Z,97319.9
2019-02-24T06:52:44.528Z,97321.4
2019-02-24T06:53:46.991Z,97322.5
2019-02-24T06:54:49.409Z,97321.8
2019-02-24T06:55:51.839Z,97326.1
2019-02-24T06:56:54.261Z,97327.5
2019-02-24T06:57:56.681Z,97331.2
2019-02-24T06:58:58.807Z,97330.2
2019-02-24T07:00:00.969Z,97334
2019-02-24T07:01:03.137Z,97332.8
2019-02-24T07:02:05.576Z,97334.6
2019-02-24T07:03:07.741Z,97333.9
2019-02-24T07:04:10.181Z,97333.6
2019-02-24T07:05:12.334Z,97333.7
2019-02-24T07:06:14.234Z,97332.1
2019-02-24T07:07:16.385Z,97336.9
2019-02-24T07:08:18.813Z,97336.2
2019-02-24T07:09:21.227Z,97338.6
2019-02-24T07:10:23.120Z,97334.3
2019-02-24T07:11:25.295Z,97335.2
2019-02-24T07:12:27.448Z,97334.1
2019-02-24T07:13:29.612Z,97338.5
2019-02-24T07:14:31.780Z,97338.5
2019-02-24T07:15:34.213Z,97335
2019-02-24T07:16:36.668Z,97344.1
2019-02-24T07:17:38.829Z,97347
2019-02-24T07:18:41.256Z,97347.8
2019-02-24T07:19:43.420Z,97350.8
2019-02-24T07:20:45.596Z,97350.9
2019-02-24T07:21:47.749Z,97351.4
2019-02-24T07:22:50.184Z,97358.8
2019-02-24T07:23:52.635Z,97360.3
2019-02-24T07:24:54.523Z,97361.7
2019-02-24T07:25:56.160Z,97364
2019-02-24T07:26:58.587Z,97366.6
2019-02-24T07:28:01.012Z,97372
2019-02-24T07:29:03.164Z,97374.4
2019-02-24T07:30:05.337Z,97378.1
2019-02-24T07:31:07.482Z,97385.2
2019-02-24T07:32:09.919Z,97390.2
2019-02-24T07:33:13.900Z,97391.1
2019-02-24T07:34:16.058Z,97394.8
2019-02-24T07:35:17.944Z,97400.3
2019-02-24T07:36:20.382Z,97396.3
2019-02-24T07:37:22.531Z,97400.8
2019-02-24T07:38:24.951Z,97403.6
2019-02-24T07:39:27.381Z,97400.7
2019-02-24T07:40:29.532Z,97405.3
2019-02-24T07:41:31.686Z,97405.9
2019-02-24T07:42:33.829Z,97407
2019-02-24T07:43:35.699Z,97408.3
2019-02-24T07:44:37.612Z,97413.8
2019-02-24T07:45:40.031Z,97415.6
2019-02-24T07:46:42.214Z,97422
2019-02-24T07:47:44.643Z,97420.8
2019-02-24T07:48:47.115Z,97422.5
2019-02-24T07:49:49.566Z,97419.1
2019-02-24T07:50:51.741Z,97416.7
2019-02-24T07:51:54.181Z,97413.8
2019-02-24T07:52:56.340Z,97417.8
2019-02-24T07:53:58.779Z,97412.4
2019-02-24T07:55:01.277Z,97418.1
2019-02-24T07:56:03.709Z,97417.4
2019-02-24T07:57:06.147Z,97418.2
2019-02-24T07:58:08.569Z,97420.6
2019-02-24T07:59:10.743Z,97420.4
2019-02-24T08:00:12.890Z,97416.1
2019-02-24T08:01:14.775Z,97413
2019-02-24T08:02:17.201Z,97415.2
2019-02-24T08:03:19.633Z,97416.2
2019-02-24T08:04:22.074Z,97417.1
2019-02-24T08:05:24.239Z,97414.4
2019-02-24T08:06:26.658Z,97417.8
2019-02-24T08:07:28.536Z,97413.6
2019-02-24T08:08:30.660Z,97412.1
2019-02-24T08:09:32.801Z,97410.8
2019-02-24T08:10:34.955Z,97411.5
2019-02-24T08:11:37.383Z,97408.7
2019-02-24T08:12:39.539Z,97409.5
2019-02-24T08:13:41.987Z,97416.2
2019-02-24T08:14:46.094Z,97413.4
2019-02-24T08:15:48.246Z,97415.8
2019-02-24T08:16:50.416Z,97415.5
2019-02-24T08:17:52.294Z,97412.9
2019-02-24T08:18:54.719Z,97414.5
2019-02-24T08:19:57.167Z,97414.9
2019-02-24T08:20:59.615Z,97420.3
2019-02-24T08:22:01.873Z,97417
2019-02-24T08:23:03.461Z,97412.7
2019-02-24T08:24:05.893Z,97414.2
2019-02-24T08:25:08.311Z,97415.4
2019-02-24T08:26:10.729Z,97411.7
2019-02-24T08:27:13.170Z,97409.9
2019-02-24T08:28:15.588Z,97407.9
2019-02-24T08:29:17.458Z,97400.6
2019-02-24T08:30:19.595Z,97391.5
2019-02-24T08:31:21.722Z,97389.7
2019-02-24T08:32:23.851Z,97377.5
2019-02-24T08:33:26.025Z,97372.2
2019-02-24T08:34:28.450Z,97369.2
2019-02-24T08:35:30.604Z,97364.5
2019-02-24T08:36:32.749Z,97357.8
2019-02-24T08:37:35.191Z,97356.4
2019-02-24T08:38:37.612Z,97354
2019-02-24T08:39:39.512Z,97351.9
2019-02-24T08:40:41.930Z,97347.7
2019-02-24T08:41:43.798Z,97349.8
2019-02-24T08:42:46.231Z,97350.1
2019-02-24T08:43:48.142Z,97346.3
2019-02-24T08:44:49.761Z,97343.9
2019-02-24T08:45:52.184Z,97345.8
2019-02-24T08:46:54.086Z,97345.3
2019-02-24T08:47:56.501Z,97343.1
2019-02-24T08:48:58.928Z,97336.6
2019-02-24T08:50:01.352Z,97333.8
2019-02-24T08:51:03.775Z,97325.6
2019-02-24T08:52:06.220Z,97327.9
2019-02-24T08:53:08.396Z,97327.9
2019-02-24T08:54:10.819Z,97323.9
2019-02-24T08:55:13.301Z,97323.9
2019-02-24T08:56:15.730Z,97319
2019-02-24T08:57:18.163Z,97313.9
2019-02-24T08:58:20.613Z,97321.5
2019-02-24T08:59:23.039Z,97320.9
2019-02-24T09:00:25.196Z,97325.2
2019-02-24T09:01:27.048Z,97325.1
2019-02-24T09:02:29.208Z,97328.4
2019-02-24T09:03:31.392Z,97330.8
2019-02-24T09:04:33.835Z,97327.7
2019-02-24T09:05:36.276Z,97322.6
2019-02-24T09:06:38.440Z,97322.7
2019-02-24T09:07:40.606Z,97317.8
2019-02-24T09:08:43.037Z,97315.9
2019-02-24T09:09:45.472Z,97311.7
2019-02-24T09:10:47.903Z,97310.6
2019-02-24T09:11:50.327Z,97303.4
2019-02-24T09:12:52.219Z,97306.9
2019-02-24T09:13:54.658Z,97300.7
2019-02-24T09:14:55.697Z,97297.9
2019-02-24T09:15:57.830Z,97299.1
2019-02-24T09:16:59.983Z,97298.9
2019-02-24T09:18:02.132Z,97297.6
2019-02-24T09:19:04.042Z,97301.3
2019-02-24T09:20:06.217Z,97307
2019-02-24T09:21:08.372Z,97307.5
2019-02-24T09:22:12.391Z,97307.1
2019-02-24T09:23:14.647Z,97311.4
2019-02-24T09:24:16.546Z,97315.5
2019-02-24T09:25:18.991Z,97319.5
2019-02-24T09:26:21.414Z,97319.5
2019-02-24T09:27:23.610Z,97321.2
2019-02-24T09:28:26.051Z,97315.6
2019-02-24T09:29:27.933Z,97315.6
2019-02-24T09:30:29.810Z,97325.1
2019-02-24T09:31:31.974Z,97334.7
2019-02-24T09:32:33.869Z,97338.9
2019-02-24T09:33:36.295Z,97348.4
2019-02-24T09:34:38.448Z,97352.1
2019-02-24T09:35:40.752Z,97350.6
2019-02-24T09:36:43.275Z,97349.8
2019-02-24T09:37:45.754Z,97347.5
2019-02-24T09:38:47.942Z,97349.5
2019-02-24T09:39:50.158Z,97339.5
2019-02-24T09:40:52.330Z,97340.5
2019-02-24T09:41:54.758Z,97338.5
2019-02-24T09:42:57.200Z,97334.5
2019-02-24T09:43:59.349Z,97339
2019-02-24T09:45:01.779Z,97338.8
2019-02-24T09:46:04.204Z,97339.5
2019-02-24T09:47:06.640Z,97338.7
2019-02-24T09:48:08.806Z,97338.8
2019-02-24T09:49:11.231Z,97334.8
2019-02-24T09:50:13.670Z,97328.6
2019-02-24T09:51:16.107Z,97327.6
2019-02-24T09:52:18.560Z,97322.5
2019-02-24T09:53:20.998Z,97318.6
2019-02-24T09:54:23.143Z,97320.6
2019-02-24T09:55:24.458Z,97321.6
2019-02-24T09:56:26.887Z,97326.3
2019-02-24T09:57:29.323Z,97332.3
2019-02-24T09:58:31.763Z,97336.2
2019-02-24T09:59:34.176Z,97332
2019-02-24T10:00:36.645Z,97340.5
2019-02-24T10:01:38.827Z,97345
2019-02-24T10:02:41.272Z,97349
2019-02-24T10:03:43.430Z,97357.1
2019-02-24T10:04:45.899Z,97365.2
2019-02-24T10:05:48.330Z,97366
2019-02-24T10:06:50.470Z,97370
2019-02-24T10:07:52.899Z,97375.1
2019-02-24T10:08:54.787Z,97375.6
2019-02-24T10:09:56.957Z,97383.4
2019-02-24T10:10:59.391Z,97377.9
2019-02-24T10:12:01.534Z,97382.2
2019-02-24T10:13:03.965Z,97374.8
2019-02-24T10:14:06.414Z,97374.3
2019-02-24T10:15:08.554Z,97369.1
2019-02-24T10:16:10.451Z,97367.6
2019-02-24T10:17:12.337Z,97364.2
2019-02-24T10:18:14.796Z,97370.4
2019-02-24T10:19:17.224Z,97368.3
2019-02-24T10:20:19.649Z,97362.8
2019-02-24T10:21:21.820Z,97354.6
2019-02-24T10:22:23.977Z,97354.8
2019-02-24T10:23:28.552Z,97357.6
2019-02-24T10:24:30.981Z,97361.3
2019-02-24T10:25:33.418Z,97363.9
2019-02-24T10:26:35.846Z,97367.8
2019-02-24T10:27:37.741Z,97364.5
2019-02-24T10:28:40.224Z,97366.7
2019-02-24T10:29:42.655Z,97365.8
2019-02-24T10:30:44.549Z,97364.5
2019-02-24T10:31:46.987Z,97360.8
2019-02-24T10:32:49.458Z,97361.4
2019-02-24T10:33:51.328Z,97362.5
2019-02-24T10:34:53.489Z,97362.9
2019-02-24T10:35:55.667Z,97364.5
2019-02-24T10:36:58.100Z,97364.4
2019-02-24T10:38:00.531Z,97362.3
2019-02-24T10:39:02.680Z,97364.4
2019-02-24T10:40:04.839Z,97361
2019-02-24T10:41:07.000Z,97357
2019-02-24T10:42:09.171Z,97352.1
2019-02-24T10:43:11.066Z,97347.5
2019-02-24T10:44:13.504Z,97348.7
2019-02-24T10:45:15.636Z,97346.7
2019-02-24T10:46:18.062Z,97353.8
2019-02-24T10:47:20.213Z,97354.1
2019-02-24T10:48:22.367Z,97358.2
2019-02-24T10:49:24.810Z,97360.5
2019-02-24T10:50:27.249Z,97357.6
2019-02-24T10:51:29.676Z,97353.4
2019-02-24T10:52:31.968Z,97353.2
2019-02-24T10:53:34.132Z,97353.1
2019-02-24T10:54:36.018Z,97357.7
2019-02-24T10:55:38.188Z,97358.6
2019-02-24T10:56:40.674Z,97359.1
2019-02-24T10:57:42.562Z,97353.4
2019-02-24T10:58:44.728Z,97355.2
2019-02-24T10:59:46.897Z,97355.4
2019-02-24T11:00:49.072Z,97364.3
2019-02-24T11:01:50.943Z,97366.8
2019-02-24T11:02:53.074Z,97365.2
2019-02-24T11:03:55.513Z,97367.3
2019-02-24T11:04:57.424Z,97365.8
2019-02-24T11:05:59.593Z,97359.1
2019-02-24T11:07:01.753Z,97360.5
2019-02-24T11:08:03.648Z,97363.5
2019-02-24T11:09:06.116Z,97370.3
2019-02-24T11:10:08.307Z,97361.2
2019-02-24T11:11:10.728Z,97362.6
2019-02-24T11:12:12.620Z,97361.6
2019-02-24T11:13:14.808Z,97359.2
2019-02-24T11:14:17.005Z,97358.2
2019-02-24T11:15:19.168Z,97364.6
2019-02-24T11:16:21.336Z,97360.2
2019-02-24T11:17:23.490Z,97359.8
2019-02-24T11:18:25.920Z,97354.6
2019-02-24T11:19:28.355Z,97354.4
2019-02-24T11:20:30.785Z,97350
2019-02-24T11:21:33.212Z,97351.9
2019-02-24T11:22:35.659Z,97345.1
2019-02-24T11:23:38.094Z,97344.6
2019-02-24T11:24:40.534Z,97337.1
2019-02-24T11:25:43.026Z,97333.1
2019-02-24T11:26:45.197Z,97334.2
2019-02-24T11:27:47.628Z,97332.8
2019-02-24T11:28:50.054Z,97338.8
2019-02-24T11:29:52.218Z,97333.6
2019-02-24T11:30:54.705Z,97336.3
2019-02-24T11:31:58.959Z,97331.8
2019-02-24T11:33:01.382Z,97327.7
2019-02-24T11:34:03.816Z,97326.1
2019-02-24T11:35:05.941Z,97331.8
2019-02-24T11:36:07.830Z,97332.2
2019-02-24T11:37:09.988Z,97333.4
2019-02-24T11:38:11.600Z,97334.9
2019-02-24T11:39:13.748Z,97332.2
2019-02-24T11:40:15.917Z,97331.9
2019-02-24T11:41:17.540Z,97330.1
2019-02-24T11:42:19.974Z,97332.4
2019-02-24T11:43:22.405Z,97330.6
2019-02-24T11:44:24.840Z,97333.9
2019-02-24T11:45:26.999Z,97331.1
2019-02-24T11:46:29.166Z,97333.2
2019-02-24T11:47:31.325Z,97333.8
2019-02-24T11:48:33.483Z,97337.1
2019-02-24T11:49:35.907Z,97337.5
2019-02-24T11:50:38.075Z,97332.9
2019-02-24T11:51:40.518Z,97329.5
2019-02-24T11:52:42.945Z,97332.7
2019-02-24T11:53:45.384Z,97327.8
2019-02-24T11:54:47.834Z,97330.5
2019-02-24T11:55:50.274Z,97332.9
2019-02-24T11:56:52.711Z,97334.5
2019-02-24T11:57:54.896Z,97333.3
2019-02-24T11:58:57.073Z,97333.7
2019-02-24T11:59:59.501Z,97337.5
2019-02-24T12:01:01.929Z,97335.5
2019-02-24T12:02:03.876Z,97342.5
2019-02-24T12:03:06.294Z,97347.5
2019-02-24T12:04:08.199Z,97349.7
2019-02-24T12:05:10.368Z,97351.5
2019-02-24T12:06:12.798Z,97350.9
2019-02-24T12:07:14.705Z,97343.1
2019-02-24T12:08:16.857Z,97334.4
2019-02-24T12:09:18.717Z,97335.1
2019-02-24T12:10:21.146Z,97333
2019-02-24T12:11:23.587Z,97333.7
2019-02-24T12:12:26.032Z,97332.9
2019-02-24T12:13:28.494Z,97334.8
2019-02-24T12:14:30.943Z,97329.9
2019-02-24T12:15:32.799Z,97330.4
2019-02-24T12:16:34.956Z,97338.2
2019-02-24T12:17:37.130Z,97336
2019-02-24T12:18:39.274Z,97337.3
2019-02-24T12:19:41.425Z,97340.1
2019-02-24T12:20:43.311Z,97339.4
2019-02-24T12:21:45.759Z,97343.9
2019-02-24T12:22:48.208Z,97346.5
2019-02-24T12:23:50.648Z,97344
2019-02-24T12:24:52.784Z,97345.5
2019-02-24T12:25:54.949Z,97344.2
2019-02-24T12:26:57.099Z,97349.4
2019-02-24T12:27:59.264Z,97346.5
2019-02-24T12:29:01.121Z,97344
2019-02-24T12:30:03.290Z,97349.8
2019-02-24T12:31:05.723Z,97348.5
2019-02-24T12:32:08.176Z,97346
2019-02-24T12:33:10.349Z,97352
2019-02-24T12:34:12.778Z,97345.6
2019-02-24T12:35:14.958Z,97343.6
2019-02-24T12:36:17.396Z,97345.7
2019-02-24T12:37:19.843Z,97342.5
2019-02-24T12:38:22.280Z,97338
2019-02-24T12:39:24.419Z,97335
2019-02-24T12:40:26.855Z,97336.3
2019-02-24T12:41:29.028Z,97331.8
2019-02-24T12:42:31.189Z,97334.5
2019-02-24T12:43:33.636Z,97333.7
2019-02-24T12:44:35.795Z,97331.2
2019-02-24T12:45:37.969Z,97330.2
2019-02-24T12:46:40.431Z,97329.2